Terminal Aerodrome Forecast
Issued by NWS Pocatello, ID

Home | Current Version | Previous Version | Text Only | Print | Product List | Glossary On
Versions: 1 2 3 4 5 6 7 8 9 10 11 12 13 14 15 16
000
FTUS45 KPIH 302340 AAA
TAFIDA
TAF AMD
KIDA 302340Z 3100/3124 20010G20KT 6SM -SHRA BR VCTS BKN010CB OVC020
     FM310300 25016G26KT 6SM -SHRA BR BKN010 OVC020
     FM310500 35018G30KT 6SM -SHRA BKN020 OVC040
     FM311900 02018G30KT P6SM VCSH FEW020 BKN050 OVC120=

USA.gov is the U.S. government's official web portal to all federal, state and local government web resources and services.